sensor_id;sensor_type;location;lat;lon;timestamp;temperature;humidity
15178;DHT22;7689;53.612;-2.416;2022-09-30T00:01:16;8.30;99.90
15178;DHT22;7689;53.612;-2.416;2022-09-30T00:03:42;8.30;99.90
15178;DHT22;7689;53.612;-2.416;2022-09-30T00:06:08;8.30;99.90
15178;DHT22;7689;53.612;-2.416;2022-09-30T00:08:38;8.30;99.90
15178;DHT22;7689;53.612;-2.416;2022-09-30T00:11:06;8.30;99.90
15178;DHT22;7689;53.612;-2.416;2022-09-30T00:13:35;8.30;99.90
15178;DHT22;7689;53.612;-2.416;2022-09-30T00:16:01;8.30;99.90
15178;DHT22;7689;53.612;-2.416;2022-09-30T00:18:27;8.30;99.90
15178;DHT22;7689;53.612;-2.416;2022-09-30T00:20:53;8.40;99.90
15178;DHT22;7689;53.612;-2.416;2022-09-30T00:23:21;8.30;99.90
15178;DHT22;7689;53.612;-2.416;2022-09-30T00:25:46;8.20;99.90
15178;DHT22;7689;53.612;-2.416;2022-09-30T00:28:13;8.10;99.90
15178;DHT22;7689;53.612;-2.416;2022-09-30T00:30:39;8.10;99.90
15178;DHT22;7689;53.612;-2.416;2022-09-30T00:33:05;8.10;99.90
15178;DHT22;7689;53.612;-2.416;2022-09-30T00:35:31;8.10;99.90
15178;DHT22;7689;53.612;-2.416;2022-09-30T00:37:57;8.10;99.90
15178;DHT22;7689;53.612;-2.416;2022-09-30T00:40:25;8.20;99.90
15178;DHT22;7689;53.612;-2.416;2022-09-30T00:42:51;8.20;99.90
15178;DHT22;7689;53.612;-2.416;2022-09-30T00:45:17;8.20;99.90
15178;DHT22;7689;53.612;-2.416;2022-09-30T00:48:07;8.10;99.90
15178;DHT22;7689;53.612;-2.416;2022-09-30T00:56:02;8.00;99.90
15178;DHT22;7689;53.612;-2.416;2022-09-30T01:00:59;8.00;99.90
15178;DHT22;7689;53.612;-2.416;2022-09-30T01:03:32;7.90;99.90
15178;DHT22;7689;53.612;-2.416;2022-09-30T01:05:59;7.80;99.90
15178;DHT22;7689;53.612;-2.416;2022-09-30T01:08:27;7.90;99.90
15178;DHT22;7689;53.612;-2.416;2022-09-30T01:10:53;7.80;99.90
15178;DHT22;7689;53.612;-2.416;2022-09-30T01:13:19;7.80;99.90
15178;DHT22;7689;53.612;-2.416;2022-09-30T01:26:47;8.00;99.90
15178;DHT22;7689;53.612;-2.416;2022-09-30T01:29:49;8.00;99.90
15178;DHT22;7689;53.612;-2.416;2022-09-30T01:35:28;7.90;99.90
15178;DHT22;7689;53.612;-2.416;2022-09-30T01:40:29;7.80;99.90
15178;DHT22;7689;53.612;-2.416;2022-09-30T01:43:56;7.70;99.90
15178;DHT22;7689;53.612;-2.416;2022-09-30T01:48:45;7.60;99.90
15178;DHT22;7689;53.612;-2.416;2022-09-30T01:51:30;7.70;99.90
15178;DHT22;7689;53.612;-2.416;2022-09-30T01:54:32;7.80;99.90
15178;DHT22;7689;53.612;-2.416;2022-09-30T01:57:10;7.70;99.90
15178;DHT22;7689;53.612;-2.416;2022-09-30T01:59:45;7.80;99.90
15178;DHT22;7689;53.612;-2.416;2022-09-30T02:02:41;7.80;99.90
15178;DHT22;7689;53.612;-2.416;2022-09-30T02:07:53;7.80;99.90
15178;DHT22;7689;53.612;-2.416;2022-09-30T02:10:40;7.60;99.90
15178;DHT22;7689;53.612;-2.416;2022-09-30T02:15:42;7.80;99.90
15178;DHT22;7689;53.612;-2.416;2022-09-30T02:18:16;7.80;99.90
15178;DHT22;7689;53.612;-2.416;2022-09-30T02:20:48;7.80;99.90
15178;DHT22;7689;53.612;-2.416;2022-09-30T02:23:18;7.70;99.90
15178;DHT22;7689;53.612;-2.416;2022-09-30T02:25:53;7.60;99.90
15178;DHT22;7689;53.612;-2.416;2022-09-30T02:28:23;7.70;99.90
15178;DHT22;7689;53.612;-2.416;2022-09-30T02:30:56;7.80;99.90
15178;DHT22;7689;53.612;-2.416;2022-09-30T02:33:44;7.70;99.90
15178;DHT22;7689;53.612;-2.416;2022-09-30T02:36:40;7.70;99.90
15178;DHT22;7689;53.612;-2.416;2022-09-30T02:39:14;7.80;99.90
15178;DHT22;7689;53.612;-2.416;2022-09-30T02:41:47;7.90;99.90
15178;DHT22;7689;53.612;-2.416;2022-09-30T02:44:14;8.00;99.90
15178;DHT22;7689;53.612;-2.416;2022-09-30T02:52:14;8.10;99.90
15178;DHT22;7689;53.612;-2.416;2022-09-30T02:57:48;8.30;99.90
15178;DHT22;7689;53.612;-2.416;2022-09-30T03:00:16;8.50;99.90
15178;DHT22;7689;53.612;-2.416;2022-09-30T03:02:42;8.60;99.90
15178;DHT22;7689;53.612;-2.416;2022-09-30T03:05:08;8.70;99.90
15178;DHT22;7689;53.612;-2.416;2022-09-30T03:07:34;8.80;99.90
15178;DHT22;7689;53.612;-2.416;2022-09-30T03:10:00;8.90;99.90
15178;DHT22;7689;53.612;-2.416;2022-09-30T03:18:10;8.80;99.90
15178;DHT22;7689;53.612;-2.416;2022-09-30T03:21:04;8.80;99.90
15178;DHT22;7689;53.612;-2.416;2022-09-30T03:37:15;8.50;99.90
15178;DHT22;7689;53.612;-2.416;2022-09-30T03:40:03;8.50;99.90
15178;DHT22;7689;53.612;-2.416;2022-09-30T03:42:42;8.40;99.90
15178;DHT22;7689;53.612;-2.416;2022-09-30T03:47:48;8.30;99.90
15178;DHT22;7689;53.612;-2.416;2022-09-30T03:50:19;8.20;99.90
15178;DHT22;7689;53.612;-2.416;2022-09-30T03:52:47;8.20;99.90
15178;DHT22;7689;53.612;-2.416;2022-09-30T03:55:13;8.20;99.90
15178;DHT22;7689;53.612;-2.416;2022-09-30T03:57:40;8.30;99.90
15178;DHT22;7689;53.612;-2.416;2022-09-30T04:00:07;8.30;99.90
15178;DHT22;7689;53.612;-2.416;2022-09-30T04:02:33;8.30;99.90
15178;DHT22;7689;53.612;-2.416;2022-09-30T04:05:02;8.40;99.90
15178;DHT22;7689;53.612;-2.416;2022-09-30T04:07:28;8.40;99.90
15178;DHT22;7689;53.612;-2.416;2022-09-30T04:09:53;8.40;99.90
15178;DHT22;7689;53.612;-2.416;2022-09-30T04:12:19;8.40;99.90
15178;DHT22;7689;53.612;-2.416;2022-09-30T04:14:45;8.40;99.90
15178;DHT22;7689;53.612;-2.416;2022-09-30T04:17:11;8.50;99.90
15178;DHT22;7689;53.612;-2.416;2022-09-30T04:19:36;8.50;99.90
15178;DHT22;7689;53.612;-2.416;2022-09-30T04:22:05;8.50;99.90
15178;DHT22;7689;53.612;-2.416;2022-09-30T04:24:31;8.70;99.90
15178;DHT22;7689;53.612;-2.416;2022-09-30T04:26:57;8.80;99.90
15178;DHT22;7689;53.612;-2.416;2022-09-30T04:29:22;8.90;99.90
15178;DHT22;7689;53.612;-2.416;2022-09-30T04:31:48;9.00;99.90
15178;DHT22;7689;53.612;-2.416;2022-09-30T04:34:14;8.90;99.90
15178;DHT22;7689;53.612;-2.416;2022-09-30T04:36:39;8.80;99.90
15178;DHT22;7689;53.612;-2.416;2022-09-30T04:39:05;8.80;99.90
15178;DHT22;7689;53.612;-2.416;2022-09-30T04:41:31;8.80;99.90
15178;DHT22;7689;53.612;-2.416;2022-09-30T04:43:58;8.80;99.90
15178;DHT22;7689;53.612;-2.416;2022-09-30T04:46:24;8.80;99.90
15178;DHT22;7689;53.612;-2.416;2022-09-30T04:48:50;8.80;99.90
15178;DHT22;7689;53.612;-2.416;2022-09-30T04:51:18;8.80;99.90
15178;DHT22;7689;53.612;-2.416;2022-09-30T04:53:45;8.80;99.90
15178;DHT22;7689;53.612;-2.416;2022-09-30T04:56:12;8.80;99.90
15178;DHT22;7689;53.612;-2.416;2022-09-30T04:58:37;8.80;99.90
15178;DHT22;7689;53.612;-2.416;2022-09-30T05:01:12;8.80;99.90
15178;DHT22;7689;53.612;-2.416;2022-09-30T05:03:38;8.80;99.90
15178;DHT22;7689;53.612;-2.416;2022-09-30T05:06:06;8.90;99.90
15178;DHT22;7689;53.612;-2.416;2022-09-30T05:08:32;9.10;99.90
15178;DHT22;7689;53.612;-2.416;2022-09-30T05:11:05;9.10;99.90
15178;DHT22;7689;53.612;-2.416;2022-09-30T05:13:36;9.20;99.90
15178;DHT22;7689;53.612;-2.416;2022-09-30T05:16:03;9.30;99.90
15178;DHT22;7689;53.612;-2.416;2022-09-30T05:18:29;9.30;99.90
15178;DHT22;7689;53.612;-2.416;2022-09-30T05:20:56;9.20;99.90
15178;DHT22;7689;53.612;-2.416;2022-09-30T05:23:23;9.30;99.90
15178;DHT22;7689;53.612;-2.416;2022-09-30T05:25:49;9.40;99.90
15178;DHT22;7689;53.612;-2.416;2022-09-30T05:28:15;9.40;99.90
15178;DHT22;7689;53.612;-2.416;2022-09-30T05:30:41;9.30;99.90
15178;DHT22;7689;53.612;-2.416;2022-09-30T05:33:08;9.30;99.90
15178;DHT22;7689;53.612;-2.416;2022-09-30T05:35:34;9.20;99.90
15178;DHT22;7689;53.612;-2.416;2022-09-30T05:38:01;9.20;99.90
15178;DHT22;7689;53.612;-2.416;2022-09-30T05:40:29;9.20;99.90
15178;DHT22;7689;53.612;-2.416;2022-09-30T05:42:59;9.20;99.90
15178;DHT22;7689;53.612;-2.416;2022-09-30T05:45:25;9.20;99.90
15178;DHT22;7689;53.612;-2.416;2022-09-30T05:47:52;9.20;99.90
15178;DHT22;7689;53.612;-2.416;2022-09-30T05:50:18;9.20;99.90
15178;DHT22;7689;53.612;-2.416;2022-09-30T05:52:45;9.30;99.90
15178;DHT22;7689;53.612;-2.416;2022-09-30T05:55:10;9.40;99.90
15178;DHT22;7689;53.612;-2.416;2022-09-30T05:57:36;9.30;99.90
15178;DHT22;7689;53.612;-2.416;2022-09-30T06:00:03;9.40;99.90
15178;DHT22;7689;53.612;-2.416;2022-09-30T06:02:29;9.40;99.90
15178;DHT22;7689;53.612;-2.416;2022-09-30T06:04:54;9.40;99.90
15178;DHT22;7689;53.612;-2.416;2022-09-30T06:07:20;9.40;99.90
15178;DHT22;7689;53.612;-2.416;2022-09-30T06:09:45;9.40;99.90
15178;DHT22;7689;53.612;-2.416;2022-09-30T06:12:11;9.40;99.90
15178;DHT22;7689;53.612;-2.416;2022-09-30T06:14:37;9.50;99.90
15178;DHT22;7689;53.612;-2.416;2022-09-30T06:17:03;9.50;99.90
15178;DHT22;7689;53.612;-2.416;2022-09-30T06:19:31;9.50;99.90
15178;DHT22;7689;53.612;-2.416;2022-09-30T06:21:57;9.50;99.90
15178;DHT22;7689;53.612;-2.416;2022-09-30T06:24:22;9.60;99.90
15178;DHT22;7689;53.612;-2.416;2022-09-30T06:26:48;9.60;99.90
15178;DHT22;7689;53.612;-2.416;2022-09-30T06:29:14;9.50;99.90
15178;DHT22;7689;53.612;-2.416;2022-09-30T06:31:39;9.50;99.90
15178;DHT22;7689;53.612;-2.416;2022-09-30T06:34:05;9.50;99.90
15178;DHT22;7689;53.612;-2.416;2022-09-30T06:36:31;9.60;99.90
15178;DHT22;7689;53.612;-2.416;2022-09-30T06:38:59;9.60;99.90
15178;DHT22;7689;53.612;-2.416;2022-09-30T06:41:25;9.60;99.90
15178;DHT22;7689;53.612;-2.416;2022-09-30T06:43:55;9.70;99.90
15178;DHT22;7689;53.612;-2.416;2022-09-30T06:46:21;9.70;99.90
15178;DHT22;7689;53.612;-2.416;2022-09-30T06:48:49;9.70;99.90
15178;DHT22;7689;53.612;-2.416;2022-09-30T06:51:17;9.70;99.90
15178;DHT22;7689;53.612;-2.416;2022-09-30T06:53:44;9.70;99.90
15178;DHT22;7689;53.612;-2.416;2022-09-30T06:56:10;9.70;99.90
15178;DHT22;7689;53.612;-2.416;2022-09-30T06:58:37;9.60;99.90
15178;DHT22;7689;53.612;-2.416;2022-09-30T07:01:05;9.50;99.90
15178;DHT22;7689;53.612;-2.416;2022-09-30T07:03:33;9.60;99.90
15178;DHT22;7689;53.612;-2.416;2022-09-30T07:06:01;9.50;99.90
15178;DHT22;7689;53.612;-2.416;2022-09-30T07:08:28;9.50;99.90
15178;DHT22;7689;53.612;-2.416;2022-09-30T07:10:56;9.50;99.90
15178;DHT22;7689;53.612;-2.416;2022-09-30T07:13:22;9.60;99.90
15178;DHT22;7689;53.612;-2.416;2022-09-30T07:15:48;9.70;99.90
15178;DHT22;7689;53.612;-2.416;2022-09-30T07:18:16;9.80;99.90
15178;DHT22;7689;53.612;-2.416;2022-09-30T07:20:52;9.80;99.90
15178;DHT22;7689;53.612;-2.416;2022-09-30T07:23:19;9.80;99.90
15178;DHT22;7689;53.612;-2.416;2022-09-30T07:25:55;9.80;99.90
15178;DHT22;7689;53.612;-2.416;2022-09-30T07:28:26;9.90;99.90
15178;DHT22;7689;53.612;-2.416;2022-09-30T07:30:57;9.90;99.90
15178;DHT22;7689;53.612;-2.416;2022-09-30T07:33:26;9.90;99.90
15178;DHT22;7689;53.612;-2.416;2022-09-30T07:35:56;10.00;99.90
15178;DHT22;7689;53.612;-2.416;2022-09-30T07:38:24;10.00;99.90
15178;DHT22;7689;53.612;-2.416;2022-09-30T07:41:02;10.10;99.90
15178;DHT22;7689;53.612;-2.416;2022-09-30T07:43:29;10.10;99.90
15178;DHT22;7689;53.612;-2.416;2022-09-30T07:46:23;10.10;99.90
15178;DHT22;7689;53.612;-2.416;2022-09-30T07:48:50;10.10;99.90
15178;DHT22;7689;53.612;-2.416;2022-09-30T07:51:19;10.20;99.90
15178;DHT22;7689;53.612;-2.416;2022-09-30T07:53:49;10.20;99.90
15178;DHT22;7689;53.612;-2.416;2022-09-30T07:56:15;10.20;99.90
15178;DHT22;7689;53.612;-2.416;2022-09-30T07:58:41;10.20;99.90
15178;DHT22;7689;53.612;-2.416;2022-09-30T08:01:07;10.30;99.90
15178;DHT22;7689;53.612;-2.416;2022-09-30T08:03:35;10.30;99.90
15178;DHT22;7689;53.612;-2.416;2022-09-30T08:06:15;10.30;99.90
15178;DHT22;7689;53.612;-2.416;2022-09-30T08:08:42;10.30;99.90
15178;DHT22;7689;53.612;-2.416;2022-09-30T08:11:09;10.40;99.90
15178;DHT22;7689;53.612;-2.416;2022-09-30T08:13:35;10.30;99.90
15178;DHT22;7689;53.612;-2.416;2022-09-30T08:16:01;10.40;99.90
15178;DHT22;7689;53.612;-2.416;2022-09-30T08:18:27;10.40;99.90
15178;DHT22;7689;53.612;-2.416;2022-09-30T08:20:54;10.40;99.90
15178;DHT22;7689;53.612;-2.416;2022-09-30T08:23:19;10.40;99.90
15178;DHT22;7689;53.612;-2.416;2022-09-30T08:25:45;10.50;99.90
15178;DHT22;7689;53.612;-2.416;2022-09-30T08:28:11;10.40;99.90
15178;DHT22;7689;53.612;-2.416;2022-09-30T08:30:38;10.50;99.90
15178;DHT22;7689;53.612;-2.416;2022-09-30T08:33:04;10.50;99.90
15178;DHT22;7689;53.612;-2.416;2022-09-30T08:35:30;10.50;99.90
15178;DHT22;7689;53.612;-2.416;2022-09-30T08:37:56;10.50;99.90
15178;DHT22;7689;53.612;-2.416;2022-09-30T08:40:31;10.50;99.90
15178;DHT22;7689;53.612;-2.416;2022-09-30T08:43:14;10.60;99.90
15178;DHT22;7689;53.612;-2.416;2022-09-30T08:51:38;10.70;99.90
15178;DHT22;7689;53.612;-2.416;2022-09-30T08:54:15;10.80;99.90
15178;DHT22;7689;53.612;-2.416;2022-09-30T08:56:44;10.80;99.90
15178;DHT22;7689;53.612;-2.416;2022-09-30T08:59:37;10.90;99.90
15178;DHT22;7689;53.612;-2.416;2022-09-30T09:04:50;9.50;99.90
15178;DHT22;7689;53.612;-2.416;2022-09-30T09:10:39;11.10;99.90
15178;DHT22;7689;53.612;-2.416;2022-09-30T09:13:11;11.20;99.90
15178;DHT22;7689;53.612;-2.416;2022-09-30T09:19:02;11.30;99.90
15178;DHT22;7689;53.612;-2.416;2022-09-30T09:21:54;11.30;99.90
15178;DHT22;7689;53.612;-2.416;2022-09-30T09:24:25;11.30;99.90
15178;DHT22;7689;53.612;-2.416;2022-09-30T09:26:56;11.40;99.90
15178;DHT22;7689;53.612;-2.416;2022-09-30T09:32:01;11.50;99.90
15178;DHT22;7689;53.612;-2.416;2022-09-30T09:34:30;11.50;99.90
15178;DHT22;7689;53.612;-2.416;2022-09-30T09:37:21;11.50;99.90
15178;DHT22;7689;53.612;-2.416;2022-09-30T09:40:29;11.60;99.90
15178;DHT22;7689;53.612;-2.416;2022-09-30T09:43:12;11.50;99.90
15178;DHT22;7689;53.612;-2.416;2022-09-30T09:48:31;11.60;99.90
15178;DHT22;7689;53.612;-2.416;2022-09-30T09:51:18;11.60;99.90
15178;DHT22;7689;53.612;-2.416;2022-09-30T09:53:51;11.70;99.90
15178;DHT22;7689;53.612;-2.416;2022-09-30T09:56:20;11.70;99.90
15178;DHT22;7689;53.612;-2.416;2022-09-30T10:01:43;11.80;99.90
15178;DHT22;7689;53.612;-2.416;2022-09-30T10:04:18;11.80;99.90
15178;DHT22;7689;53.612;-2.416;2022-09-30T10:12:17;11.70;99.90
15178;DHT22;7689;53.612;-2.416;2022-09-30T10:14:58;11.80;99.90
15178;DHT22;7689;53.612;-2.416;2022-09-30T10:17:33;11.80;99.90
15178;DHT22;7689;53.612;-2.416;2022-09-30T10:20:22;11.80;99.90
15178;DHT22;7689;53.612;-2.416;2022-09-30T10:22:46;11.80;99.90
15178;DHT22;7689;53.612;-2.416;2022-09-30T10:25:21;11.80;99.90
15178;DHT22;7689;53.612;-2.416;2022-09-30T10:30:36;11.10;99.90
15178;DHT22;7689;53.612;-2.416;2022-09-30T10:33:03;11.70;99.90
15178;DHT22;7689;53.612;-2.416;2022-09-30T10:35:48;11.70;99.90
15178;DHT22;7689;53.612;-2.416;2022-09-30T10:38:14;11.70;99.90
15178;DHT22;7689;53.612;-2.416;2022-09-30T10:40:48;11.70;99.90
15178;DHT22;7689;53.612;-2.416;2022-09-30T10:43:38;11.70;99.90
15178;DHT22;7689;53.612;-2.416;2022-09-30T10:46:05;11.60;99.90
15178;DHT22;7689;53.612;-2.416;2022-09-30T10:48:34;11.70;99.90
15178;DHT22;7689;53.612;-2.416;2022-09-30T10:51:00;11.70;99.90
15178;DHT22;7689;53.612;-2.416;2022-09-30T10:53:28;11.70;99.90
15178;DHT22;7689;53.612;-2.416;2022-09-30T10:55:55;11.60;99.90
15178;DHT22;7689;53.612;-2.416;2022-09-30T11:01:52;11.60;99.90
15178;DHT22;7689;53.612;-2.416;2022-09-30T11:06:39;11.60;99.90
15178;DHT22;7689;53.612;-2.416;2022-09-30T11:09:21;11.60;99.90
15178;DHT22;7689;53.612;-2.416;2022-09-30T11:11:59;11.60;99.90
15178;DHT22;7689;53.612;-2.416;2022-09-30T11:14:37;11.60;99.90
15178;DHT22;7689;53.612;-2.416;2022-09-30T11:20:10;11.60;99.90
15178;DHT22;7689;53.612;-2.416;2022-09-30T11:23:05;11.60;99.90
15178;DHT22;7689;53.612;-2.416;2022-09-30T11:37:13;11.50;99.90
15178;DHT22;7689;53.612;-2.416;2022-09-30T11:42:21;11.50;99.90
15178;DHT22;7689;53.612;-2.416;2022-09-30T11:45:02;11.50;99.90
15178;DHT22;7689;53.612;-2.416;2022-09-30T11:47:43;11.40;99.90
15178;DHT22;7689;53.612;-2.416;2022-09-30T11:50:29;11.50;99.90
15178;DHT22;7689;53.612;-2.416;2022-09-30T11:58:53;11.50;99.90
15178;DHT22;7689;53.612;-2.416;2022-09-30T12:01:42;11.50;99.90
15178;DHT22;7689;53.612;-2.416;2022-09-30T12:04:25;11.50;99.90
15178;DHT22;7689;53.612;-2.416;2022-09-30T12:07:16;11.50;99.90
15178;DHT22;7689;53.612;-2.416;2022-09-30T12:09:55;11.50;99.90
15178;DHT22;7689;53.612;-2.416;2022-09-30T12:12:22;11.50;99.90
15178;DHT22;7689;53.612;-2.416;2022-09-30T12:14:56;11.40;99.90
15178;DHT22;7689;53.612;-2.416;2022-09-30T12:17:30;11.40;99.90
15178;DHT22;7689;53.612;-2.416;2022-09-30T12:20:04;11.50;99.90
15178;DHT22;7689;53.612;-2.416;2022-09-30T12:22:39;11.50;99.90
15178;DHT22;7689;53.612;-2.416;2022-09-30T12:25:35;11.50;99.90
15178;DHT22;7689;53.612;-2.416;2022-09-30T12:28:07;11.50;99.90
15178;DHT22;7689;53.612;-2.416;2022-09-30T12:33:58;11.40;99.90
15178;DHT22;7689;53.612;-2.416;2022-09-30T12:42:37;11.50;99.90
15178;DHT22;7689;53.612;-2.416;2022-09-30T12:45:24;11.50;99.90
15178;DHT22;7689;53.612;-2.416;2022-09-30T12:47:56;11.50;99.90
15178;DHT22;7689;53.612;-2.416;2022-09-30T12:50:27;11.50;99.90
15178;DHT22;7689;53.612;-2.416;2022-09-30T12:52:55;11.50;99.90
15178;DHT22;7689;53.612;-2.416;2022-09-30T12:55:38;11.50;99.90
15178;DHT22;7689;53.612;-2.416;2022-09-30T12:58:20;11.50;99.90
15178;DHT22;7689;53.612;-2.416;2022-09-30T13:01:07;11.50;99.90
15178;DHT22;7689;53.612;-2.416;2022-09-30T13:07:04;11.50;99.90
15178;DHT22;7689;53.612;-2.416;2022-09-30T13:19:34;11.60;99.90
15178;DHT22;7689;53.612;-2.416;2022-09-30T13:27:50;11.70;99.90
15178;DHT22;7689;53.612;-2.416;2022-09-30T13:35:34;11.80;99.90
15178;DHT22;7689;53.612;-2.416;2022-09-30T13:40:54;11.90;99.90
15178;DHT22;7689;53.612;-2.416;2022-09-30T13:43:56;11.90;99.90
15178;DHT22;7689;53.612;-2.416;2022-09-30T13:49:13;13.50;99.90
15178;DHT22;7689;53.612;-2.416;2022-09-30T13:51:43;11.80;99.90
15178;DHT22;7689;53.612;-2.416;2022-09-30T13:56:50;11.80;99.90
15178;DHT22;7689;53.612;-2.416;2022-09-30T14:00:05;11.90;99.90
15178;DHT22;7689;53.612;-2.416;2022-09-30T14:05:53;11.90;99.90
15178;DHT22;7689;53.612;-2.416;2022-09-30T14:11:47;11.90;99.90
15178;DHT22;7689;53.612;-2.416;2022-09-30T14:22:39;11.80;99.90
15178;DHT22;7689;53.612;-2.416;2022-09-30T14:25:17;11.80;99.90
15178;DHT22;7689;53.612;-2.416;2022-09-30T14:28:07;11.80;99.90
15178;DHT22;7689;53.612;-2.416;2022-09-30T14:30:40;11.80;99.90
15178;DHT22;7689;53.612;-2.416;2022-09-30T14:33:22;11.80;99.90
15178;DHT22;7689;53.612;-2.416;2022-09-30T14:35:51;11.80;99.90
15178;DHT22;7689;53.612;-2.416;2022-09-30T14:38:23;11.80;99.90
15178;DHT22;7689;53.612;-2.416;2022-09-30T14:40:53;11.80;99.90
15178;DHT22;7689;53.612;-2.416;2022-09-30T14:43:24;11.80;99.90
15178;DHT22;7689;53.612;-2.416;2022-09-30T14:45:55;11.90;99.90
15178;DHT22;7689;53.612;-2.416;2022-09-30T14:48:27;11.90;99.90
15178;DHT22;7689;53.612;-2.416;2022-09-30T14:51:12;11.90;99.90
15178;DHT22;7689;53.612;-2.416;2022-09-30T14:53:52;11.90;99.90
15178;DHT22;7689;53.612;-2.416;2022-09-30T14:56:29;11.90;99.90
15178;DHT22;7689;53.612;-2.416;2022-09-30T14:58:56;11.90;99.90
15178;DHT22;7689;53.612;-2.416;2022-09-30T15:01:26;11.90;99.90
15178;DHT22;7689;53.612;-2.416;2022-09-30T15:06:27;11.90;99.90
15178;DHT22;7689;53.612;-2.416;2022-09-30T15:09:13;11.90;99.90
15178;DHT22;7689;53.612;-2.416;2022-09-30T15:11:40;12.00;99.90
15178;DHT22;7689;53.612;-2.416;2022-09-30T15:14:14;12.00;99.90
15178;DHT22;7689;53.612;-2.416;2022-09-30T15:16:55;12.00;99.90
15178;DHT22;7689;53.612;-2.416;2022-09-30T15:19:32;12.00;99.90
15178;DHT22;7689;53.612;-2.416;2022-09-30T15:22:01;12.00;99.90
15178;DHT22;7689;53.612;-2.416;2022-09-30T15:24:29;12.00;99.90
15178;DHT22;7689;53.612;-2.416;2022-09-30T15:26:56;12.10;99.90
15178;DHT22;7689;53.612;-2.416;2022-09-30T15:29:22;12.10;99.90
15178;DHT22;7689;53.612;-2.416;2022-09-30T15:32:17;12.10;99.90
15178;DHT22;7689;53.612;-2.416;2022-09-30T15:34:44;12.10;99.90
15178;DHT22;7689;53.612;-2.416;2022-09-30T15:37:20;12.10;99.90
15178;DHT22;7689;53.612;-2.416;2022-09-30T15:39:47;12.10;99.90
15178;DHT22;7689;53.612;-2.416;2022-09-30T15:42:38;12.20;99.90
15178;DHT22;7689;53.612;-2.416;2022-09-30T15:48:00;12.20;99.90
15178;DHT22;7689;53.612;-2.416;2022-09-30T15:50:41;12.20;99.90
15178;DHT22;7689;53.612;-2.416;2022-09-30T15:53:16;12.20;99.90
15178;DHT22;7689;53.612;-2.416;2022-09-30T15:55:44;12.20;99.90
15178;DHT22;7689;53.612;-2.416;2022-09-30T16:01:18;12.30;99.90
15178;DHT22;7689;53.612;-2.416;2022-09-30T16:04:00;12.40;99.90
15178;DHT22;7689;53.612;-2.416;2022-09-30T16:06:31;12.40;99.90
15178;DHT22;7689;53.612;-2.416;2022-09-30T16:09:02;12.50;99.90
15178;DHT22;7689;53.612;-2.416;2022-09-30T16:11:29;12.60;99.90
15178;DHT22;7689;53.612;-2.416;2022-09-30T16:13:56;12.60;99.90
15178;DHT22;7689;53.612;-2.416;2022-09-30T16:16:25;12.70;99.90
15178;DHT22;7689;53.612;-2.416;2022-09-30T16:18:53;12.80;99.90
15178;DHT22;7689;53.612;-2.416;2022-09-30T16:21:47;12.80;99.90
15178;DHT22;7689;53.612;-2.416;2022-09-30T16:26:57;13.00;99.90
15178;DHT22;7689;53.612;-2.416;2022-09-30T16:29:25;13.10;99.90
15178;DHT22;7689;53.612;-2.416;2022-09-30T16:31:53;13.10;99.90
15178;DHT22;7689;53.612;-2.416;2022-09-30T16:34:24;13.20;99.90
15178;DHT22;7689;53.612;-2.416;2022-09-30T16:36:52;13.20;99.90
15178;DHT22;7689;53.612;-2.416;2022-09-30T16:39:18;13.30;99.90
15178;DHT22;7689;53.612;-2.416;2022-09-30T16:41:44;13.30;99.90
15178;DHT22;7689;53.612;-2.416;2022-09-30T16:44:11;13.40;99.90
15178;DHT22;7689;53.612;-2.416;2022-09-30T16:46:39;13.50;99.90
15178;DHT22;7689;53.612;-2.416;2022-09-30T16:49:15;13.50;99.90
15178;DHT22;7689;53.612;-2.416;2022-09-30T16:51:41;13.50;99.90
15178;DHT22;7689;53.612;-2.416;2022-09-30T16:54:08;13.60;99.90
15178;DHT22;7689;53.612;-2.416;2022-09-30T16:56:33;13.70;99.90
15178;DHT22;7689;53.612;-2.416;2022-09-30T16:58:59;13.70;99.90
15178;DHT22;7689;53.612;-2.416;2022-09-30T17:01:25;13.70;99.90
15178;DHT22;7689;53.612;-2.416;2022-09-30T17:03:52;13.70;99.90
15178;DHT22;7689;53.612;-2.416;2022-09-30T17:06:24;13.60;99.90
15178;DHT22;7689;53.612;-2.416;2022-09-30T17:08:50;13.60;99.90
15178;DHT22;7689;53.612;-2.416;2022-09-30T17:11:18;13.50;99.90
15178;DHT22;7689;53.612;-2.416;2022-09-30T17:13:44;13.50;99.90
15178;DHT22;7689;53.612;-2.416;2022-09-30T17:16:12;13.40;99.90
15178;DHT22;7689;53.612;-2.416;2022-09-30T17:18:37;13.40;99.90
15178;DHT22;7689;53.612;-2.416;2022-09-30T17:21:03;13.40;99.90
15178;DHT22;7689;53.612;-2.416;2022-09-30T17:23:29;13.40;99.90
15178;DHT22;7689;53.612;-2.416;2022-09-30T17:25:55;13.40;99.90
15178;DHT22;7689;53.612;-2.416;2022-09-30T17:28:20;13.30;99.90
15178;DHT22;7689;53.612;-2.416;2022-09-30T17:30:47;13.30;99.90
15178;DHT22;7689;53.612;-2.416;2022-09-30T17:33:14;13.20;99.90
15178;DHT22;7689;53.612;-2.416;2022-09-30T17:35:40;13.20;99.90
15178;DHT22;7689;53.612;-2.416;2022-09-30T17:38:07;13.10;99.90
15178;DHT22;7689;53.612;-2.416;2022-09-30T17:40:34;13.10;99.90
15178;DHT22;7689;53.612;-2.416;2022-09-30T17:43:18;13.00;99.90
15178;DHT22;7689;53.612;-2.416;2022-09-30T17:45:45;13.10;99.90
15178;DHT22;7689;53.612;-2.416;2022-09-30T17:48:12;13.00;99.90
15178;DHT22;7689;53.612;-2.416;2022-09-30T17:50:44;13.00;99.90
15178;DHT22;7689;53.612;-2.416;2022-09-30T17:53:11;13.00;99.90
15178;DHT22;7689;53.612;-2.416;2022-09-30T17:55:41;12.90;99.90
15178;DHT22;7689;53.612;-2.416;2022-09-30T17:58:08;12.90;99.90
15178;DHT22;7689;53.612;-2.416;2022-09-30T18:00:36;12.80;99.90
15178;DHT22;7689;53.612;-2.416;2022-09-30T18:03:02;12.80;99.90
15178;DHT22;7689;53.612;-2.416;2022-09-30T18:05:29;12.80;99.90
15178;DHT22;7689;53.612;-2.416;2022-09-30T18:07:55;12.70;99.90
15178;DHT22;7689;53.612;-2.416;2022-09-30T18:10:21;12.70;99.90
15178;DHT22;7689;53.612;-2.416;2022-09-30T18:12:47;12.60;99.90
15178;DHT22;7689;53.612;-2.416;2022-09-30T18:15:16;12.60;99.90
15178;DHT22;7689;53.612;-2.416;2022-09-30T18:17:42;12.60;99.90
15178;DHT22;7689;53.612;-2.416;2022-09-30T18:20:09;12.50;99.90
15178;DHT22;7689;53.612;-2.416;2022-09-30T18:22:35;12.50;99.90
15178;DHT22;7689;53.612;-2.416;2022-09-30T18:25:00;12.50;99.90
15178;DHT22;7689;53.612;-2.416;2022-09-30T18:27:52;12.50;99.90
15178;DHT22;7689;53.612;-2.416;2022-09-30T18:30:20;12.40;99.90
15178;DHT22;7689;53.612;-2.416;2022-09-30T18:32:50;12.40;99.90
15178;DHT22;7689;53.612;-2.416;2022-09-30T18:35:18;12.40;99.90
15178;DHT22;7689;53.612;-2.416;2022-09-30T18:37:46;12.30;99.90
15178;DHT22;7689;53.612;-2.416;2022-09-30T18:40:15;12.30;99.90
15178;DHT22;7689;53.612;-2.416;2022-09-30T18:42:42;12.30;99.90
15178;DHT22;7689;53.612;-2.416;2022-09-30T18:45:08;12.30;99.90
15178;DHT22;7689;53.612;-2.416;2022-09-30T18:47:40;12.20;99.90
15178;DHT22;7689;53.612;-2.416;2022-09-30T18:50:11;12.20;99.90
15178;DHT22;7689;53.612;-2.416;2022-09-30T18:52:38;12.20;99.90
15178;DHT22;7689;53.612;-2.416;2022-09-30T18:55:05;12.20;99.90
15178;DHT22;7689;53.612;-2.416;2022-09-30T18:57:32;12.20;99.90
15178;DHT22;7689;53.612;-2.416;2022-09-30T18:59:59;12.10;99.90
15178;DHT22;7689;53.612;-2.416;2022-09-30T19:02:26;12.10;99.90
15178;DHT22;7689;53.612;-2.416;2022-09-30T19:04:52;12.10;99.90
15178;DHT22;7689;53.612;-2.416;2022-09-30T19:07:21;12.10;99.90
15178;DHT22;7689;53.612;-2.416;2022-09-30T19:09:48;12.10;99.90
15178;DHT22;7689;53.612;-2.416;2022-09-30T19:12:14;12.10;99.90
15178;DHT22;7689;53.612;-2.416;2022-09-30T19:14:42;12.10;99.90